createdAt,value
2022-09-23T00:15:36.737Z,9.39
2022-09-23T01:36:42.175Z,9.38
2022-09-23T01:56:45.066Z,9.46
2022-09-23T03:17:54.167Z,7.35
2022-09-23T03:58:12.973Z,7.13
2022-09-23T04:18:16.163Z,6.62
2022-09-23T04:38:18.647Z,6.52
2022-09-23T04:58:21.710Z,6.57
2022-09-23T05:18:24.527Z,7.04
2022-09-23T05:38:27.106Z,7.18
2022-09-23T05:58:30.042Z,7.58
2022-09-23T06:18:32.832Z,8.53
2022-09-23T06:38:35.751Z,8.82
2022-09-23T06:58:39.192Z,9.98
2022-09-23T07:18:42.282Z,10.75
2022-09-23T07:38:45.935Z,11.18
2022-09-23T07:59:00.994Z,12.38
2022-09-23T08:39:06.261Z,11.83
2022-09-23T08:59:11.866Z,11.99
2022-09-23T09:19:14.569Z,11.31
2022-09-23T09:39:16.956Z,12.58
2022-09-23T09:59:22.206Z,13.26
2022-09-23T10:19:24.933Z,14.03
2022-09-23T10:39:46.476Z,15.29
2022-09-23T10:59:49.979Z,15.57
2022-09-23T11:19:52.447Z,15.58
2022-09-23T11:39:54.865Z,14.86
2022-09-23T11:59:57.329Z,14.98
2022-09-23T12:19:59.742Z,15.34
2022-09-23T12:40:02.252Z,15.20
2022-09-23T13:00:04.993Z,15.70
2022-09-23T13:20:07.548Z,14.28
2022-09-23T13:40:10.478Z,13.83
2022-09-23T14:00:13.310Z,13.84
2022-09-23T14:20:15.989Z,14.10
2022-09-23T14:40:18.544Z,14.45
2022-09-23T15:00:21.568Z,14.98
2022-09-23T15:20:24.238Z,15.47
2022-09-23T15:40:26.882Z,14.28
2022-09-23T16:00:29.587Z,14.41
2022-09-23T16:20:32.297Z,13.65
2022-09-23T16:40:35.085Z,12.82
2022-09-23T17:00:56.797Z,11.63
2022-09-23T17:20:59.621Z,11.03
2022-09-23T17:41:03.237Z,10.11
2022-09-23T18:01:05.795Z,9.42
2022-09-23T18:21:08.878Z,8.94
2022-09-23T18:41:12.719Z,8.92
2022-09-23T19:01:15.254Z,8.27
2022-09-23T19:21:18.197Z,7.98
2022-09-23T19:41:21.276Z,7.82
2022-09-23T20:01:23.810Z,7.52
2022-09-23T20:21:26.249Z,7.33
2022-09-23T20:41:29.636Z,7.23
2022-09-23T21:01:32.494Z,6.76
2022-09-23T21:21:34.916Z,6.49
2022-09-23T21:41:37.691Z,6.66
2022-09-23T22:01:40.311Z,6.45
2022-09-23T22:21:42.895Z,6.24
2022-09-23T22:41:45.539Z,6.08
2022-09-23T23:01:48.208Z,6.37
2022-09-23T23:21:50.770Z,6.78
2022-09-23T23:41:53.348Z,6.40
